sensor_id;sensor_type;location;lat;lon;timestamp;P1;durP1;ratioP1;P2;durP2;ratioP2
54502;SDS011;40411;50.090;21.954;2023-07-20T00:01:24;10.90;;;6.32;;
54502;SDS011;40411;50.090;21.954;2023-07-20T00:03:50;9.40;;;5.97;;
54502;SDS011;40411;50.090;21.954;2023-07-20T00:06:26;9.82;;;5.63;;
54502;SDS011;40411;50.090;21.954;2023-07-20T00:08:56;10.07;;;5.97;;
54502;SDS011;40411;50.090;21.954;2023-07-20T00:11:26;14.18;;;6.90;;
54502;SDS011;40411;50.090;21.954;2023-07-20T00:13:53;14.52;;;6.18;;
54502;SDS011;40411;50.090;21.954;2023-07-20T00:16:19;13.70;;;5.93;;
54502;SDS011;40411;50.090;21.954;2023-07-20T00:18:45;12.88;;;5.95;;
54502;SDS011;40411;50.090;21.954;2023-07-20T00:21:10;10.00;;;6.07;;
54502;SDS011;40411;50.090;21.954;2023-07-20T00:23:37;12.65;;;5.75;;
54502;SDS011;40411;50.090;21.954;2023-07-20T00:26:03;11.68;;;6.22;;
54502;SDS011;40411;50.090;21.954;2023-07-20T00:28:29;12.40;;;5.60;;
54502;SDS011;40411;50.090;21.954;2023-07-20T00:30:54;10.85;;;5.88;;
54502;SDS011;40411;50.090;21.954;2023-07-20T00:33:20;12.95;;;6.53;;
54502;SDS011;40411;50.090;21.954;2023-07-20T00:35:46;11.95;;;6.00;;
54502;SDS011;40411;50.090;21.954;2023-07-20T00:38:12;9.88;;;6.05;;
54502;SDS011;40411;50.090;21.954;2023-07-20T00:40:38;9.95;;;5.30;;
54502;SDS011;40411;50.090;21.954;2023-07-20T00:43:05;15.55;;;6.43;;
54502;SDS011;40411;50.090;21.954;2023-07-20T00:45:32;15.77;;;5.85;;
54502;SDS011;40411;50.090;21.954;2023-07-20T00:47:59;13.43;;;6.35;;
54502;SDS011;40411;50.090;21.954;2023-07-20T00:50:27;9.70;;;5.50;;
54502;SDS011;40411;50.090;21.954;2023-07-20T00:52:55;12.68;;;5.70;;
54502;SDS011;40411;50.090;21.954;2023-07-20T00:55:21;15.35;;;6.28;;
54502;SDS011;40411;50.090;21.954;2023-07-20T00:57:48;11.57;;;6.30;;
54502;SDS011;40411;50.090;21.954;2023-07-20T01:00:13;10.30;;;5.60;;
54502;SDS011;40411;50.090;21.954;2023-07-20T01:02:40;11.13;;;5.60;;
54502;SDS011;40411;50.090;21.954;2023-07-20T01:05:06;13.73;;;5.78;;
54502;SDS011;40411;50.090;21.954;2023-07-20T01:12:51;9.73;;;5.50;;
54502;SDS011;40411;50.090;21.954;2023-07-20T01:15:18;9.95;;;5.53;;
54502;SDS011;40411;50.090;21.954;2023-07-20T01:17:44;10.35;;;5.25;;
54502;SDS011;40411;50.090;21.954;2023-07-20T01:20:14;10.35;;;5.57;;
54502;SDS011;40411;50.090;21.954;2023-07-20T01:31:28;9.88;;;5.57;;
54502;SDS011;40411;50.090;21.954;2023-07-20T01:33:58;14.05;;;5.55;;
54502;SDS011;40411;50.090;21.954;2023-07-20T01:36:28;11.38;;;6.15;;
54502;SDS011;40411;50.090;21.954;2023-07-20T01:38:56;12.43;;;5.68;;
54502;SDS011;40411;50.090;21.954;2023-07-20T01:41:23;13.18;;;5.88;;
54502;SDS011;40411;50.090;21.954;2023-07-20T01:43:49;11.75;;;5.50;;
54502;SDS011;40411;50.090;21.954;2023-07-20T01:46:15;11.00;;;5.50;;
54502;SDS011;40411;50.090;21.954;2023-07-20T01:48:41;9.25;;;5.00;;
54502;SDS011;40411;50.090;21.954;2023-07-20T01:51:07;8.90;;;5.45;;
54502;SDS011;40411;50.090;21.954;2023-07-20T01:53:33;9.00;;;4.78;;
54502;SDS011;40411;50.090;21.954;2023-07-20T01:55:59;9.15;;;5.75;;
54502;SDS011;40411;50.090;21.954;2023-07-20T01:58:25;12.25;;;5.10;;
54502;SDS011;40411;50.090;21.954;2023-07-20T02:00:51;10.70;;;5.53;;
54502;SDS011;40411;50.090;21.954;2023-07-20T02:03:18;14.25;;;6.03;;
54502;SDS011;40411;50.090;21.954;2023-07-20T02:05:44;12.55;;;5.68;;
54502;SDS011;40411;50.090;21.954;2023-07-20T02:08:10;10.60;;;5.72;;
54502;SDS011;40411;50.090;21.954;2023-07-20T02:10:36;11.15;;;5.63;;
54502;SDS011;40411;50.090;21.954;2023-07-20T02:13:02;33.35;;;6.35;;
54502;SDS011;40411;50.090;21.954;2023-07-20T02:15:28;11.55;;;5.40;;
54502;SDS011;40411;50.090;21.954;2023-07-20T02:17:54;11.88;;;5.53;;
54502;SDS011;40411;50.090;21.954;2023-07-20T02:20:20;10.85;;;5.78;;
54502;SDS011;40411;50.090;21.954;2023-07-20T02:22:46;10.90;;;6.15;;
54502;SDS011;40411;50.090;21.954;2023-07-20T02:25:12;12.68;;;6.60;;
54502;SDS011;40411;50.090;21.954;2023-07-20T02:27:38;18.10;;;6.43;;
54502;SDS011;40411;50.090;21.954;2023-07-20T02:30:05;10.77;;;5.78;;
54502;SDS011;40411;50.090;21.954;2023-07-20T02:32:31;9.25;;;5.45;;
54502;SDS011;40411;50.090;21.954;2023-07-20T02:34:57;8.93;;;5.43;;
54502;SDS011;40411;50.090;21.954;2023-07-20T02:37:24;10.95;;;5.85;;
54502;SDS011;40411;50.090;21.954;2023-07-20T02:39:50;9.88;;;5.45;;
54502;SDS011;40411;50.090;21.954;2023-07-20T02:42:16;9.38;;;5.68;;
54502;SDS011;40411;50.090;21.954;2023-07-20T02:44:42;9.90;;;5.45;;
54502;SDS011;40411;50.090;21.954;2023-07-20T02:47:08;10.85;;;5.65;;
54502;SDS011;40411;50.090;21.954;2023-07-20T02:49:34;10.95;;;5.35;;
54502;SDS011;40411;50.090;21.954;2023-07-20T02:52:00;11.25;;;5.45;;
54502;SDS011;40411;50.090;21.954;2023-07-20T02:54:26;11.35;;;5.43;;
54502;SDS011;40411;50.090;21.954;2023-07-20T02:56:52;10.23;;;5.40;;
54502;SDS011;40411;50.090;21.954;2023-07-20T02:59:18;9.35;;;5.47;;
54502;SDS011;40411;50.090;21.954;2023-07-20T03:01:44;14.50;;;5.38;;
54502;SDS011;40411;50.090;21.954;2023-07-20T03:04:10;10.73;;;5.30;;
54502;SDS011;40411;50.090;21.954;2023-07-20T03:06:36;10.77;;;6.60;;
54502;SDS011;40411;50.090;21.954;2023-07-20T03:09:02;11.95;;;5.63;;
54502;SDS011;40411;50.090;21.954;2023-07-20T03:11:29;10.48;;;6.07;;
54502;SDS011;40411;50.090;21.954;2023-07-20T03:13:56;15.07;;;6.25;;
54502;SDS011;40411;50.090;21.954;2023-07-20T03:16:23;9.65;;;5.97;;
54502;SDS011;40411;50.090;21.954;2023-07-20T03:18:52;10.30;;;5.95;;
54502;SDS011;40411;50.090;21.954;2023-07-20T03:21:18;13.48;;;6.50;;
54502;SDS011;40411;50.090;21.954;2023-07-20T03:23:44;12.88;;;6.13;;
54502;SDS011;40411;50.090;21.954;2023-07-20T03:26:10;11.75;;;6.57;;
54502;SDS011;40411;50.090;21.954;2023-07-20T03:28:36;9.43;;;6.53;;
54502;SDS011;40411;50.090;21.954;2023-07-20T03:31:03;14.60;;;7.28;;
54502;SDS011;40411;50.090;21.954;2023-07-20T03:33:32;11.85;;;6.57;;
54502;SDS011;40411;50.090;21.954;2023-07-20T03:35:59;11.88;;;7.15;;
54502;SDS011;40411;50.090;21.954;2023-07-20T03:38:25;12.60;;;6.85;;
54502;SDS011;40411;50.090;21.954;2023-07-20T03:40:52;11.70;;;7.00;;
54502;SDS011;40411;50.090;21.954;2023-07-20T03:43:19;14.63;;;6.22;;
54502;SDS011;40411;50.090;21.954;2023-07-20T03:45:46;11.45;;;6.25;;
54502;SDS011;40411;50.090;21.954;2023-07-20T03:48:15;13.13;;;6.65;;
54502;SDS011;40411;50.090;21.954;2023-07-20T03:50:46;16.90;;;6.30;;
54502;SDS011;40411;50.090;21.954;2023-07-20T03:53:13;10.95;;;6.10;;
54502;SDS011;40411;50.090;21.954;2023-07-20T03:55:39;14.07;;;6.32;;
54502;SDS011;40411;50.090;21.954;2023-07-20T03:58:09;11.50;;;6.35;;
54502;SDS011;40411;50.090;21.954;2023-07-20T04:00:35;12.15;;;5.97;;
54502;SDS011;40411;50.090;21.954;2023-07-20T04:03:01;25.27;;;9.98;;
54502;SDS011;40411;50.090;21.954;2023-07-20T04:05:27;23.25;;;10.85;;
54502;SDS011;40411;50.090;21.954;2023-07-20T04:07:53;20.00;;;9.90;;
54502;SDS011;40411;50.090;21.954;2023-07-20T04:10:19;12.95;;;6.28;;
54502;SDS011;40411;50.090;21.954;2023-07-20T04:12:45;12.13;;;5.40;;
54502;SDS011;40411;50.090;21.954;2023-07-20T04:15:12;8.15;;;4.50;;
54502;SDS011;40411;50.090;21.954;2023-07-20T04:17:39;9.48;;;5.32;;
54502;SDS011;40411;50.090;21.954;2023-07-20T04:20:06;10.93;;;4.90;;
54502;SDS011;40411;50.090;21.954;2023-07-20T04:22:33;9.43;;;5.28;;
54502;SDS011;40411;50.090;21.954;2023-07-20T04:24:59;13.10;;;5.80;;
54502;SDS011;40411;50.090;21.954;2023-07-20T04:27:25;20.25;;;6.00;;
54502;SDS011;40411;50.090;21.954;2023-07-20T04:29:51;18.25;;;6.53;;
54502;SDS011;40411;50.090;21.954;2023-07-20T04:32:17;11.40;;;5.85;;
54502;SDS011;40411;50.090;21.954;2023-07-20T04:34:43;11.18;;;5.63;;
54502;SDS011;40411;50.090;21.954;2023-07-20T04:37:09;12.95;;;5.60;;
54502;SDS011;40411;50.090;21.954;2023-07-20T04:39:35;9.70;;;5.35;;
54502;SDS011;40411;50.090;21.954;2023-07-20T04:42:06;16.25;;;5.45;;
54502;SDS011;40411;50.090;21.954;2023-07-20T04:44:32;13.80;;;5.72;;
54502;SDS011;40411;50.090;21.954;2023-07-20T04:46:58;14.68;;;6.05;;
54502;SDS011;40411;50.090;21.954;2023-07-20T04:49:23;9.95;;;5.57;;
54502;SDS011;40411;50.090;21.954;2023-07-20T04:51:49;11.55;;;5.65;;
54502;SDS011;40411;50.090;21.954;2023-07-20T04:54:17;12.82;;;6.13;;
54502;SDS011;40411;50.090;21.954;2023-07-20T04:56:44;16.70;;;5.88;;
54502;SDS011;40411;50.090;21.954;2023-07-20T04:59:11;13.75;;;5.93;;
54502;SDS011;40411;50.090;21.954;2023-07-20T05:01:37;17.98;;;5.20;;
54502;SDS011;40411;50.090;21.954;2023-07-20T05:04:03;14.52;;;5.30;;
54502;SDS011;40411;50.090;21.954;2023-07-20T05:06:29;10.48;;;5.40;;
54502;SDS011;40411;50.090;21.954;2023-07-20T05:08:55;13.90;;;5.45;;
54502;SDS011;40411;50.090;21.954;2023-07-20T05:11:21;12.88;;;6.22;;
54502;SDS011;40411;50.090;21.954;2023-07-20T05:13:47;10.25;;;4.78;;
54502;SDS011;40411;50.090;21.954;2023-07-20T05:16:13;12.60;;;5.50;;
54502;SDS011;40411;50.090;21.954;2023-07-20T05:18:39;11.60;;;6.32;;
54502;SDS011;40411;50.090;21.954;2023-07-20T05:21:05;15.82;;;6.50;;
54502;SDS011;40411;50.090;21.954;2023-07-20T05:23:31;11.02;;;5.53;;
54502;SDS011;40411;50.090;21.954;2023-07-20T05:25:58;12.73;;;6.13;;
54502;SDS011;40411;50.090;21.954;2023-07-20T05:28:25;8.73;;;5.30;;
54502;SDS011;40411;50.090;21.954;2023-07-20T05:30:52;13.38;;;5.88;;
54502;SDS011;40411;50.090;21.954;2023-07-20T05:33:19;14.15;;;5.78;;
54502;SDS011;40411;50.090;21.954;2023-07-20T05:35:46;11.50;;;5.68;;
54502;SDS011;40411;50.090;21.954;2023-07-20T05:38:12;12.82;;;6.20;;
54502;SDS011;40411;50.090;21.954;2023-07-20T05:40:39;17.67;;;6.35;;
54502;SDS011;40411;50.090;21.954;2023-07-20T05:43:06;18.05;;;7.07;;
54502;SDS011;40411;50.090;21.954;2023-07-20T05:45:32;10.50;;;6.78;;
54502;SDS011;40411;50.090;21.954;2023-07-20T05:47:58;11.13;;;6.07;;
54502;SDS011;40411;50.090;21.954;2023-07-20T05:50:24;14.25;;;6.38;;
54502;SDS011;40411;50.090;21.954;2023-07-20T05:52:52;12.23;;;6.30;;
54502;SDS011;40411;50.090;21.954;2023-07-20T05:55:18;14.27;;;6.65;;
54502;SDS011;40411;50.090;21.954;2023-07-20T05:57:44;12.80;;;6.25;;
54502;SDS011;40411;50.090;21.954;2023-07-20T06:00:10;11.35;;;6.05;;
54502;SDS011;40411;50.090;21.954;2023-07-20T06:02:37;13.70;;;6.43;;
54502;SDS011;40411;50.090;21.954;2023-07-20T06:05:04;12.32;;;5.57;;
54502;SDS011;40411;50.090;21.954;2023-07-20T06:07:30;12.63;;;6.20;;
54502;SDS011;40411;50.090;21.954;2023-07-20T06:09:57;13.63;;;6.32;;
54502;SDS011;40411;50.090;21.954;2023-07-20T06:12:23;12.90;;;6.38;;
54502;SDS011;40411;50.090;21.954;2023-07-20T06:14:49;12.43;;;5.93;;
54502;SDS011;40411;50.090;21.954;2023-07-20T06:17:15;15.55;;;6.75;;
54502;SDS011;40411;50.090;21.954;2023-07-20T06:19:41;10.40;;;6.05;;
54502;SDS011;40411;50.090;21.954;2023-07-20T06:22:07;16.23;;;6.07;;
54502;SDS011;40411;50.090;21.954;2023-07-20T06:24:33;11.10;;;5.82;;
54502;SDS011;40411;50.090;21.954;2023-07-20T06:26:59;11.73;;;6.07;;
54502;SDS011;40411;50.090;21.954;2023-07-20T06:29:25;11.05;;;5.10;;
54502;SDS011;40411;50.090;21.954;2023-07-20T06:31:51;13.05;;;5.45;;
54502;SDS011;40411;50.090;21.954;2023-07-20T06:34:16;11.60;;;5.97;;
54502;SDS011;40411;50.090;21.954;2023-07-20T06:36:42;10.70;;;6.40;;
54502;SDS011;40411;50.090;21.954;2023-07-20T06:39:08;16.50;;;6.40;;
54502;SDS011;40411;50.090;21.954;2023-07-20T06:41:34;16.67;;;6.88;;
54502;SDS011;40411;50.090;21.954;2023-07-20T06:44:00;16.98;;;6.97;;
54502;SDS011;40411;50.090;21.954;2023-07-20T06:46:25;16.92;;;7.10;;
54502;SDS011;40411;50.090;21.954;2023-07-20T06:48:51;13.23;;;6.68;;
54502;SDS011;40411;50.090;21.954;2023-07-20T06:51:17;13.45;;;6.80;;
54502;SDS011;40411;50.090;21.954;2023-07-20T06:53:43;10.05;;;5.65;;
54502;SDS011;40411;50.090;21.954;2023-07-20T06:56:09;9.63;;;5.85;;
54502;SDS011;40411;50.090;21.954;2023-07-20T06:58:35;15.18;;;5.65;;
54502;SDS011;40411;50.090;21.954;2023-07-20T07:01:07;10.38;;;5.72;;
54502;SDS011;40411;50.090;21.954;2023-07-20T07:03:34;11.85;;;6.13;;
54502;SDS011;40411;50.090;21.954;2023-07-20T07:06:00;12.23;;;6.40;;
54502;SDS011;40411;50.090;21.954;2023-07-20T07:08:26;12.73;;;7.20;;
54502;SDS011;40411;50.090;21.954;2023-07-20T07:10:52;14.00;;;7.70;;
54502;SDS011;40411;50.090;21.954;2023-07-20T07:13:18;18.33;;;7.20;;
54502;SDS011;40411;50.090;21.954;2023-07-20T07:15:44;15.13;;;7.00;;
54502;SDS011;40411;50.090;21.954;2023-07-20T07:18:11;14.07;;;6.60;;
54502;SDS011;40411;50.090;21.954;2023-07-20T07:20:37;15.88;;;7.22;;
54502;SDS011;40411;50.090;21.954;2023-07-20T07:23:03;14.57;;;7.00;;
54502;SDS011;40411;50.090;21.954;2023-07-20T07:25:29;13.27;;;6.38;;
54502;SDS011;40411;50.090;21.954;2023-07-20T07:27:55;12.02;;;6.63;;
54502;SDS011;40411;50.090;21.954;2023-07-20T07:30:21;13.27;;;6.70;;
54502;SDS011;40411;50.090;21.954;2023-07-20T07:32:48;10.52;;;6.30;;
54502;SDS011;40411;50.090;21.954;2023-07-20T07:35:14;15.35;;;7.40;;
54502;SDS011;40411;50.090;21.954;2023-07-20T07:37:40;12.52;;;7.13;;
54502;SDS011;40411;50.090;21.954;2023-07-20T07:40:06;14.05;;;7.43;;
54502;SDS011;40411;50.090;21.954;2023-07-20T07:42:33;14.68;;;7.43;;
54502;SDS011;40411;50.090;21.954;2023-07-20T07:44:59;16.52;;;7.78;;
54502;SDS011;40411;50.090;21.954;2023-07-20T07:47:24;13.75;;;7.03;;
54502;SDS011;40411;50.090;21.954;2023-07-20T07:49:50;11.93;;;6.95;;
54502;SDS011;40411;50.090;21.954;2023-07-20T07:52:16;12.60;;;7.18;;
54502;SDS011;40411;50.090;21.954;2023-07-20T07:54:42;18.10;;;9.43;;
54502;SDS011;40411;50.090;21.954;2023-07-20T07:57:08;13.70;;;8.50;;
54502;SDS011;40411;50.090;21.954;2023-07-20T07:59:35;16.05;;;7.72;;
54502;SDS011;40411;50.090;21.954;2023-07-20T08:02:06;17.90;;;7.60;;
54502;SDS011;40411;50.090;21.954;2023-07-20T08:04:31;11.90;;;7.20;;
54502;SDS011;40411;50.090;21.954;2023-07-20T08:06:58;11.95;;;6.95;;
54502;SDS011;40411;50.090;21.954;2023-07-20T08:09:25;13.25;;;7.28;;
54502;SDS011;40411;50.090;21.954;2023-07-20T08:11:51;12.68;;;6.70;;
54502;SDS011;40411;50.090;21.954;2023-07-20T08:14:17;10.88;;;6.63;;
54502;SDS011;40411;50.090;21.954;2023-07-20T08:16:43;14.88;;;7.32;;
54502;SDS011;40411;50.090;21.954;2023-07-20T08:19:09;15.73;;;7.68;;
54502;SDS011;40411;50.090;21.954;2023-07-20T08:21:35;13.43;;;7.38;;
54502;SDS011;40411;50.090;21.954;2023-07-20T08:24:00;13.63;;;7.28;;
54502;SDS011;40411;50.090;21.954;2023-07-20T08:26:26;11.95;;;6.70;;
54502;SDS011;40411;50.090;21.954;2023-07-20T08:28:52;19.48;;;7.28;;
54502;SDS011;40411;50.090;21.954;2023-07-20T08:31:18;24.58;;;7.53;;
54502;SDS011;40411;50.090;21.954;2023-07-20T08:33:44;8.50;;;5.80;;
54502;SDS011;40411;50.090;21.954;2023-07-20T08:36:10;9.98;;;5.53;;
54502;SDS011;40411;50.090;21.954;2023-07-20T08:38:35;8.98;;;5.10;;
54502;SDS011;40411;50.090;21.954;2023-07-20T08:41:01;10.63;;;4.88;;
54502;SDS011;40411;50.090;21.954;2023-07-20T08:43:27;11.10;;;4.72;;
54502;SDS011;40411;50.090;21.954;2023-07-20T08:45:54;10.23;;;4.82;;
54502;SDS011;40411;50.090;21.954;2023-07-20T08:48:21;8.50;;;4.82;;
54502;SDS011;40411;50.090;21.954;2023-07-20T08:50:49;9.25;;;4.68;;
54502;SDS011;40411;50.090;21.954;2023-07-20T08:53:16;9.75;;;4.70;;
54502;SDS011;40411;50.090;21.954;2023-07-20T08:55:46;9.05;;;4.65;;
54502;SDS011;40411;50.090;21.954;2023-07-20T08:58:15;16.17;;;4.68;;
54502;SDS011;40411;50.090;21.954;2023-07-20T09:00:42;8.45;;;4.28;;
54502;SDS011;40411;50.090;21.954;2023-07-20T09:03:10;9.05;;;4.32;;
54502;SDS011;40411;50.090;21.954;2023-07-20T09:05:37;8.02;;;3.90;;
54502;SDS011;40411;50.090;21.954;2023-07-20T09:08:04;11.30;;;4.47;;
54502;SDS011;40411;50.090;21.954;2023-07-20T09:10:31;7.72;;;4.10;;
54502;SDS011;40411;50.090;21.954;2023-07-20T09:12:56;7.60;;;3.80;;
54502;SDS011;40411;50.090;21.954;2023-07-20T09:15:23;9.05;;;4.57;;
54502;SDS011;40411;50.090;21.954;2023-07-20T09:17:50;7.90;;;3.92;;
54502;SDS011;40411;50.090;21.954;2023-07-20T09:20:17;9.52;;;4.55;;
54502;SDS011;40411;50.090;21.954;2023-07-20T09:22:44;10.60;;;4.13;;
54502;SDS011;40411;50.090;21.954;2023-07-20T09:25:11;9.05;;;4.22;;
54502;SDS011;40411;50.090;21.954;2023-07-20T09:27:41;8.13;;;4.40;;
54502;SDS011;40411;50.090;21.954;2023-07-20T09:30:09;10.75;;;4.28;;
54502;SDS011;40411;50.090;21.954;2023-07-20T09:32:48;8.48;;;4.50;;
54502;SDS011;40411;50.090;21.954;2023-07-20T09:35:19;7.30;;;4.05;;
54502;SDS011;40411;50.090;21.954;2023-07-20T09:37:47;11.65;;;4.07;;
54502;SDS011;40411;50.090;21.954;2023-07-20T09:40:18;8.65;;;4.05;;
54502;SDS011;40411;50.090;21.954;2023-07-20T09:42:44;7.70;;;3.20;;
54502;SDS011;40411;50.090;21.954;2023-07-20T09:45:11;7.82;;;3.58;;
54502;SDS011;40411;50.090;21.954;2023-07-20T09:47:37;7.15;;;3.35;;
54502;SDS011;40411;50.090;21.954;2023-07-20T09:50:04;10.90;;;4.15;;
54502;SDS011;40411;50.090;21.954;2023-07-20T09:52:39;8.93;;;3.60;;
54502;SDS011;40411;50.090;21.954;2023-07-20T09:55:06;6.60;;;3.65;;
54502;SDS011;40411;50.090;21.954;2023-07-20T09:57:33;7.43;;;4.10;;
54502;SDS011;40411;50.090;21.954;2023-07-20T10:00:00;9.20;;;4.82;;
54502;SDS011;40411;50.090;21.954;2023-07-20T10:02:33;7.40;;;3.97;;
54502;SDS011;40411;50.090;21.954;2023-07-20T10:05:02;6.68;;;3.35;;
54502;SDS011;40411;50.090;21.954;2023-07-20T10:07:33;10.10;;;3.38;;
54502;SDS011;40411;50.090;21.954;2023-07-20T10:10:04;6.30;;;3.38;;
54502;SDS011;40411;50.090;21.954;2023-07-20T10:12:33;10.00;;;3.15;;
54502;SDS011;40411;50.090;21.954;2023-07-20T10:15:09;7.35;;;3.50;;
54502;SDS011;40411;50.090;21.954;2023-07-20T10:17:48;7.63;;;3.60;;
54502;SDS011;40411;50.090;21.954;2023-07-20T10:20:23;8.50;;;3.70;;
54502;SDS011;40411;50.090;21.954;2023-07-20T10:22:50;8.77;;;3.75;;
54502;SDS011;40411;50.090;21.954;2023-07-20T10:25:20;10.15;;;2.90;;
54502;SDS011;40411;50.090;21.954;2023-07-20T10:27:48;6.70;;;2.97;;
54502;SDS011;40411;50.090;21.954;2023-07-20T10:30:14;9.60;;;2.78;;
54502;SDS011;40411;50.090;21.954;2023-07-20T10:32:42;5.97;;;2.67;;
54502;SDS011;40411;50.090;21.954;2023-07-20T10:35:15;6.97;;;2.67;;
54502;SDS011;40411;50.090;21.954;2023-07-20T10:37:46;10.38;;;2.78;;
54502;SDS011;40411;50.090;21.954;2023-07-20T10:40:26;7.07;;;3.10;;
54502;SDS011;40411;50.090;21.954;2023-07-20T10:43:06;7.05;;;3.20;;
54502;SDS011;40411;50.090;21.954;2023-07-20T10:48:02;8.05;;;3.30;;
54502;SDS011;40411;50.090;21.954;2023-07-20T10:50:30;9.40;;;3.22;;
54502;SDS011;40411;50.090;21.954;2023-07-20T10:53:13;7.35;;;3.13;;
54502;SDS011;40411;50.090;21.954;2023-07-20T10:55:41;14.30;;;4.00;;
54502;SDS011;40411;50.090;21.954;2023-07-20T10:58:09;6.95;;;3.20;;
54502;SDS011;40411;50.090;21.954;2023-07-20T11:03:32;6.95;;;3.13;;
54502;SDS011;40411;50.090;21.954;2023-07-20T11:06:28;10.07;;;3.78;;
54502;SDS011;40411;50.090;21.954;2023-07-20T11:08:50;8.48;;;3.08;;
54502;SDS011;40411;50.090;21.954;2023-07-20T11:11:29;6.97;;;3.28;;
54502;SDS011;40411;50.090;21.954;2023-07-20T11:14:00;6.28;;;2.92;;
54502;SDS011;40411;50.090;21.954;2023-07-20T11:16:37;6.03;;;3.20;;
54502;SDS011;40411;50.090;21.954;2023-07-20T11:19:14;5.85;;;2.90;;
54502;SDS011;40411;50.090;21.954;2023-07-20T11:21:41;6.30;;;2.88;;
54502;SDS011;40411;50.090;21.954;2023-07-20T11:24:09;5.82;;;2.83;;
54502;SDS011;40411;50.090;21.954;2023-07-20T11:26:39;7.97;;;3.05;;
54502;SDS011;40411;50.090;21.954;2023-07-20T11:29:06;5.68;;;2.47;;
54502;SDS011;40411;50.090;21.954;2023-07-20T11:31:34;4.90;;;2.70;;
54502;SDS011;40411;50.090;21.954;2023-07-20T11:34:00;5.40;;;1.90;;
54502;SDS011;40411;50.090;21.954;2023-07-20T11:36:27;4.68;;;2.40;;
54502;SDS011;40411;50.090;21.954;2023-07-20T11:38:53;4.50;;;2.40;;
54502;SDS011;40411;50.090;21.954;2023-07-20T11:41:19;4.70;;;2.10;;
54502;SDS011;40411;50.090;21.954;2023-07-20T11:43:45;6.53;;;1.88;;
54502;SDS011;40411;50.090;21.954;2023-07-20T11:46:11;5.28;;;1.73;;
54502;SDS011;40411;50.090;21.954;2023-07-20T11:48:37;4.78;;;1.80;;
54502;SDS011;40411;50.090;21.954;2023-07-20T11:51:03;4.72;;;1.70;;
54502;SDS011;40411;50.090;21.954;2023-07-20T11:53:28;4.45;;;1.63;;
54502;SDS011;40411;50.090;21.954;2023-07-20T11:55:55;5.72;;;2.20;;
54502;SDS011;40411;50.090;21.954;2023-07-20T11:58:21;3.90;;;1.75;;
54502;SDS011;40411;50.090;21.954;2023-07-20T12:00:47;6.07;;;2.40;;
54502;SDS011;40411;50.090;21.954;2023-07-20T12:03:13;5.25;;;1.95;;
54502;SDS011;40411;50.090;21.954;2023-07-20T12:05:39;4.40;;;1.60;;
54502;SDS011;40411;50.090;21.954;2023-07-20T12:08:05;4.05;;;1.67;;
54502;SDS011;40411;50.090;21.954;2023-07-20T12:10:31;5.05;;;1.65;;
54502;SDS011;40411;50.090;21.954;2023-07-20T12:13:02;6.75;;;1.48;;
54502;SDS011;40411;50.090;21.954;2023-07-20T12:17:56;5.22;;;1.30;;
54502;SDS011;40411;50.090;21.954;2023-07-20T12:20:33;3.88;;;1.45;;
54502;SDS011;40411;50.090;21.954;2023-07-20T12:23:03;6.50;;;1.30;;
54502;SDS011;40411;50.090;21.954;2023-07-20T12:25:40;4.70;;;1.50;;
54502;SDS011;40411;50.090;21.954;2023-07-20T12:28:08;3.92;;;1.42;;
54502;SDS011;40411;50.090;21.954;2023-07-20T12:30:42;4.00;;;1.52;;
54502;SDS011;40411;50.090;21.954;2023-07-20T12:33:10;8.13;;;1.90;;
54502;SDS011;40411;50.090;21.954;2023-07-20T12:35:37;5.28;;;1.50;;
54502;SDS011;40411;50.090;21.954;2023-07-20T12:38:03;6.10;;;1.45;;
54502;SDS011;40411;50.090;21.954;2023-07-20T12:40:30;3.28;;;1.50;;
54502;SDS011;40411;50.090;21.954;2023-07-20T12:42:56;4.45;;;1.75;;
54502;SDS011;40411;50.090;21.954;2023-07-20T12:45:23;5.20;;;1.60;;
54502;SDS011;40411;50.090;21.954;2023-07-20T12:47:49;5.38;;;1.77;;
54502;SDS011;40411;50.090;21.954;2023-07-20T12:50:15;4.65;;;1.58;;
54502;SDS011;40411;50.090;21.954;2023-07-20T12:52:41;6.70;;;1.30;;
54502;SDS011;40411;50.090;21.954;2023-07-20T12:55:08;3.80;;;1.40;;
54502;SDS011;40411;50.090;21.954;2023-07-20T12:57:35;4.57;;;1.55;;
54502;SDS011;40411;50.090;21.954;2023-07-20T13:00:04;4.38;;;1.50;;
54502;SDS011;40411;50.090;21.954;2023-07-20T13:02:33;3.88;;;1.08;;
54502;SDS011;40411;50.090;21.954;2023-07-20T13:04:59;3.75;;;1.48;;
54502;SDS011;40411;50.090;21.954;2023-07-20T13:07:31;5.00;;;1.67;;
54502;SDS011;40411;50.090;21.954;2023-07-20T13:10:02;4.47;;;1.70;;
54502;SDS011;40411;50.090;21.954;2023-07-20T13:12:30;3.47;;;1.40;;
54502;SDS011;40411;50.090;21.954;2023-07-20T13:14:57;3.50;;;1.50;;
54502;SDS011;40411;50.090;21.954;2023-07-20T13:17:28;4.03;;;1.73;;
54502;SDS011;40411;50.090;21.954;2023-07-20T13:19:54;4.10;;;1.60;;
54502;SDS011;40411;50.090;21.954;2023-07-20T13:22:20;3.85;;;1.60;;
54502;SDS011;40411;50.090;21.954;2023-07-20T13:24:46;3.38;;;1.40;;
54502;SDS011;40411;50.090;21.954;2023-07-20T13:27:16;4.28;;;1.48;;
54502;SDS011;40411;50.090;21.954;2023-07-20T13:29:42;3.67;;;1.45;;
54502;SDS011;40411;50.090;21.954;2023-07-20T13:32:09;4.72;;;1.35;;
54502;SDS011;40411;50.090;21.954;2023-07-20T13:34:35;15.18;;;1.60;;
54502;SDS011;40411;50.090;21.954;2023-07-20T13:37:01;5.75;;;1.88;;
54502;SDS011;40411;50.090;21.954;2023-07-20T13:39:28;3.88;;;1.70;;
54502;SDS011;40411;50.090;21.954;2023-07-20T13:41:54;8.57;;;1.70;;
54502;SDS011;40411;50.090;21.954;2023-07-20T13:44:20;4.00;;;1.58;;
54502;SDS011;40411;50.090;21.954;2023-07-20T13:46:46;4.57;;;1.60;;
54502;SDS011;40411;50.090;21.954;2023-07-20T13:49:16;3.67;;;1.60;;
54502;SDS011;40411;50.090;21.954;2023-07-20T13:51:41;4.80;;;1.58;;
54502;SDS011;40411;50.090;21.954;2023-07-20T13:54:08;4.70;;;1.60;;
54502;SDS011;40411;50.090;21.954;2023-07-20T13:56:34;4.10;;;1.45;;
54502;SDS011;40411;50.090;21.954;2023-07-20T13:59:01;4.60;;;1.48;;
54502;SDS011;40411;50.090;21.954;2023-07-20T14:01:26;4.68;;;1.80;;
54502;SDS011;40411;50.090;21.954;2023-07-20T14:03:55;3.35;;;1.48;;
54502;SDS011;40411;50.090;21.954;2023-07-20T14:06:22;5.05;;;1.63;;
54502;SDS011;40411;50.090;21.954;2023-07-20T14:08:48;3.92;;;1.58;;
54502;SDS011;40411;50.090;21.954;2023-07-20T14:11:15;3.47;;;1.45;;
54502;SDS011;40411;50.090;21.954;2023-07-20T14:13:42;6.95;;;1.42;;
54502;SDS011;40411;50.090;21.954;2023-07-20T14:16:08;4.22;;;1.52;;
54502;SDS011;40411;50.090;21.954;2023-07-20T14:18:34;3.80;;;1.30;;
54502;SDS011;40411;50.090;21.954;2023-07-20T14:20:59;3.42;;;1.30;;
54502;SDS011;40411;50.090;21.954;2023-07-20T14:23:27;4.72;;;1.40;;
54502;SDS011;40411;50.090;21.954;2023-07-20T14:25:53;9.68;;;1.60;;
54502;SDS011;40411;50.090;21.954;2023-07-20T14:28:19;4.03;;;1.20;;
54502;SDS011;40411;50.090;21.954;2023-07-20T14:30:45;3.45;;;1.40;;
54502;SDS011;40411;50.090;21.954;2023-07-20T14:33:11;5.32;;;1.58;;
54502;SDS011;40411;50.090;21.954;2023-07-20T14:35:37;5.38;;;1.85;;
54502;SDS011;40411;50.090;21.954;2023-07-20T14:38:03;4.10;;;1.83;;
54502;SDS011;40411;50.090;21.954;2023-07-20T14:40:28;7.38;;;2.22;;
54502;SDS011;40411;50.090;21.954;2023-07-20T14:42:55;4.68;;;2.05;;
54502;SDS011;40411;50.090;21.954;2023-07-20T14:45:21;4.75;;;2.05;;
54502;SDS011;40411;50.090;21.954;2023-07-20T14:47:47;4.32;;;1.90;;
54502;SDS011;40411;50.090;21.954;2023-07-20T14:50:19;4.78;;;1.75;;